Time;durP1;ratioP1;P1;durP2;ratioP2;P2;SDS_P1;SDS_P2;PMS_P1;PMS_P2;Temp;Humidity;BMP_temperature;BMP_pressure;BME280_temperature;BME280_humidity;BME280_pressure;Samples;Min_cycle;Max_cycle;Signal;HPM_P1;HPM_P2
2021/05/14 00:13:45;;;;;;;56.20;22.47;;;;;;;12.29;84.52;97188.18;258820;1106;22844;-73
2021/05/14 00:20:31;;;;;;;;;;;;;;;;;;;;;
2021/05/14 01:37:50;;;;;;;;;;;;;;;;;;;;;
2021/05/14 02:13:05;;;;;;;59.50;23.30;;;;;;;11.73;86.09;97199.47;258831;1111;22799;-73
2021/05/14 02:20:07;;;;;;;;;;;;;;;;;;;;;
2021/05/14 02:27:04;;;;;;;;;;;;;;;;;;;;;
2021/05/14 02:41:05;;;;;;;;;;;;;;;;;;;;;
2021/05/14 03:16:36;;;;;;;55.55;18.30;;;;;;;11.79;86.00;97216.92;259148;1111;22806;-74
2021/05/14 03:23:47;;;;;;;51.70;17.30;;;;;;;11.72;86.12;97222.03;258957;1106;22881;-72
2021/05/14 04:41:37;;;;;;;54.00;16.40;;;;;;;12.03;86.29;97261.03;259000;1104;26284;-74
2021/05/14 04:55:15;;;;;;;57.50;17.00;;;;;;;12.16;86.23;97269.86;259331;1105;25905;-71
2021/05/14 05:09:42;;;;;;;55.60;16.80;;;;;;;12.17;85.92;97284.06;259359;1106;24463;-73
2021/05/14 05:16:43;;;;;;;;;;;;;;;;;;;;;
2021/05/14 05:57:32;;;;;;;68.27;19.70;;;;;;;12.57;85.48;97324.45;259268;1111;22847;-72
2021/05/14 06:04:27;;;;;;;77.30;22.20;;;;;;;12.60;85.59;97331.05;259607;1105;22814;-71
2021/05/14 06:11:31;;;;;;;77.20;20.15;;;;;;;12.70;85.48;97335.96;259176;1111;23852;-71
2021/05/14 06:31:02;;;;;;;80.00;21.70;;;;;;;12.48;85.33;97362.17;261325;1105;22926;-70
2021/05/14 06:43:22;;;;;;;;;;;;;;;;;;;;;
2021/05/14 06:49:57;;;;;;;66.70;17.55;;;;;;;12.62;85.12;97372.59;259476;1111;22789;-70
2021/05/14 06:56:00;;;;;;;62.07;18.40;;;;;;;12.69;85.36;97380.09;259383;1106;22879;-70
2021/05/14 07:08:27;;;;;;;59.35;17.50;;;;;;;12.71;85.20;97396.64;259421;1106;22806;-71
2021/05/14 07:14:36;;;;;;;;;;;;;;;;;;;;;
2021/05/14 07:34:14;;;;;;;58.33;17.13;;;;;;;12.81;84.93;97420.38;260682;1111;22909;-71
2021/05/14 07:40:48;;;;;;;;;;;;;;;;;;;;;
2021/05/14 07:46:27;;;;;;;55.30;16.67;;;;;;;13.00;84.90;97427.11;259461;1106;22974;-71
2021/05/14 07:52:22;;;;;;;45.75;15.00;;;;;;;13.10;84.94;97432.02;258186;1111;23345;-70
2021/05/14 07:58:37;;;;;;;50.75;14.90;;;;;;;13.11;84.80;97438.97;259725;1106;22876;-70
2021/05/14 08:05:30;;;;;;;;;;;;;;;;;;;;;
2021/05/14 08:11:25;;;;;;;50.70;14.60;;;;;;;13.31;84.44;97448.02;259375;1103;25919;-70
2021/05/14 08:16:30;;;;;;;49.40;15.20;;;;;;;13.34;84.52;97449.25;259372;1111;22864;-70
2021/05/14 08:21:33;;;;;;;37.03;12.13;;;;;;;13.31;84.25;97456.08;259439;1103;23046;-70
2021/05/14 08:26:52;;;;;;;34.00;11.63;;;;;;;13.25;84.06;97452.06;259396;1103;22851;-70
2021/05/14 08:32:00;;;;;;;36.90;12.30;;;;;;;13.33;84.66;97456.55;259415;1103;26008;-70
2021/05/14 08:37:06;;;;;;;37.60;13.10;;;;;;;13.45;84.37;97457.67;259520;1111;22786;-70
2021/05/14 08:42:17;;;;;;;43.30;13.85;;;;;;;13.71;84.72;97464.55;259433;1111;22938;-70
2021/05/14 08:47:21;;;;;;;45.97;14.60;;;;;;;13.95;84.44;97471.76;259599;1103;22802;-70
2021/05/14 08:52:39;;;;;;;47.70;14.55;;;;;;;14.16;83.40;97468.89;259619;1111;22842;-70
2021/05/14 08:58:28;;;;;;;;;;;;;;;;;;;;;
2021/05/14 09:04:20;;;;;;;;;;;;;;;;;;;;;
2021/05/14 09:17:52;;;;;;;29.70;10.40;;;;;;;13.76;82.65;97505.47;259131;1106;26091;-71
2021/05/14 09:38:12;;;;;;;;;;;;;;;;;;;;;
2021/05/14 09:44:29;;;;;;;38.95;16.00;;;;;;;13.88;82.79;97526.20;258084;1111;22803;-70
2021/05/14 09:56:34;;;;;;;43.67;14.73;;;;;;;13.58;82.38;97541.83;258828;1111;24638;-69
2021/05/14 10:23:34;;;;;;;61.93;16.77;;;;;;;13.38;82.25;97552.38;259447;1110;23395;-70
2021/05/14 10:36:33;;;;;;;81.80;20.10;;;;;;;13.38;82.61;97557.76;259411;1111;22794;-70
2021/05/14 10:49:16;;;;;;;59.05;20.60;;;;;;;13.78;82.01;97567.83;259547;1110;22894;-69
2021/05/14 11:01:46;;;;;;;80.40;25.10;;;;;;;14.45;81.57;97580.90;258113;1111;24455;-69
2021/05/14 11:08:08;;;;;;;76.45;25.75;;;;;;;14.88;81.45;97584.75;259479;1106;26248;-69
2021/05/14 11:14:34;;;;;;;77.20;27.40;;;;;;;15.24;80.53;97595.67;259286;1106;23537;-71
2021/05/14 11:27:48;;;;;;;;;;;;;;;;;;;;;
2021/05/14 11:33:37;;;;;;;63.80;24.80;;;;;;;14.82;78.59;97601.54;257666;1103;22783;-68
2021/05/14 11:40:04;;;;;;;57.37;23.27;;;;;;;14.68;78.77;97607.33;259375;1110;22827;-69
2021/05/14 11:45:44;;;;;;;57.47;21.97;;;;;;;14.50;78.49;97609.50;258015;1111;22812;-69
2021/05/14 11:51:30;;;;;;;56.80;22.10;;;;;;;14.37;78.64;97608.77;258489;1105;22793;-69
2021/05/14 12:04:02;;;;;;;57.25;21.60;;;;;;;14.10;78.65;97621.05;257937;1103;22819;-69
2021/05/14 12:16:45;;;;;;;;;;;;;;;;;;;;;
2021/05/14 12:22:50;;;;;;;42.10;18.40;;;;;;;13.97;78.83;97631.05;257806;1103;22814;-69
2021/05/14 12:29:24;;;;;;;47.17;19.93;;;;;;;14.11;78.95;97644.17;258078;1103;25896;-68
2021/05/14 12:35:53;;;;;;;;;;;;;;;;;;;;;
2021/05/14 12:42:46;;;;;;;46.00;20.50;;;;;;;14.69;77.90;97649.34;257918;1110;22949;-69
2021/05/14 12:49:20;;;;;;;36.40;15.70;;;;;;;14.60;77.39;97654.05;257842;1103;22806;-68
2021/05/14 12:55:33;;;;;;;32.45;15.80;;;;;;;14.46;77.17;97662.50;257773;1110;22822;-69
2021/05/14 13:01:43;;;;;;;37.70;18.10;;;;;;;14.49;77.26;97672.59;258251;1103;22952;-70
2021/05/14 13:07:07;;;;;;;35.00;16.25;;;;;;;14.80;77.17;97669.28;258459;1103;22892;-69
2021/05/14 13:13:19;;;;;;;19.60;11.55;;;;;;;15.12;76.47;97674.73;259664;1103;25347;-69
2021/05/14 13:19:03;;;;;;;26.03;13.43;;;;;;;15.26;75.70;97678.95;257658;1110;22803;-68
2021/05/14 13:26:11;;;;;;;21.05;12.00;;;;;;;15.31;75.06;97687.57;257759;1111;22948;-68
2021/05/14 13:33:17;;;;;;;25.70;12.90;;;;;;;15.15;74.96;97695.65;257606;1105;22894;-69
2021/05/14 13:39:28;;;;;;;14.55;8.20;;;;;;;14.97;74.57;97705.95;259005;1109;24147;-68
2021/05/14 13:46:16;;;;;;;15.95;8.70;;;;;;;14.93;75.18;97696.98;258480;1106;22879;-70
2021/05/14 13:52:57;;;;;;;17.10;11.20;;;;;;;14.98;74.55;97706.72;259515;1106;22850;-69
2021/05/14 13:59:07;;;;;;;15.05;10.30;;;;;;;14.86;74.15;97719.13;257986;1101;26245;-69
2021/05/14 14:05:19;;;;;;;14.70;9.70;;;;;;;14.69;74.23;97722.11;257851;1110;22779;-68
2021/05/14 14:17:40;;;;;;;17.40;11.25;;;;;;;14.24;74.50;97733.81;257913;1103;27177;-70
2021/05/14 14:23:58;;;;;;;;;;;;;;;;;;;;;
2021/05/14 14:30:36;;;;;;;12.07;9.43;;;;;;;14.68;74.59;97739.41;258164;1105;26015;-69
2021/05/14 14:36:20;;;;;;;17.13;10.90;;;;;;;14.75;74.36;97734.22;259098;1106;22793;-69
2021/05/14 14:41:56;;;;;;;14.05;9.30;;;;;;;14.87;74.15;97744.97;258308;1111;22810;-69
2021/05/14 14:53:34;;;;;;;12.10;8.05;;;;;;;14.84;73.75;97742.16;258297;1111;22811;-70
2021/05/14 15:00:29;;;;;;;;;;;;;;;;;;;;;
2021/05/14 15:06:00;;;;;;;9.43;7.27;;;;;;;14.86;73.26;97745.31;258937;1105;22778;-69
2021/05/14 15:11:29;;;;;;;;;;;;;;;;;;;;;
2021/05/14 15:17:39;;;;;;;;;;;;;;;;;;;;;
2021/05/14 15:23:17;;;;;;;12.75;8.55;;;;;;;14.63;73.66;97751.19;258422;1111;22796;-68
2021/05/14 15:28:42;;;;;;;;;;;;;;;;;;;;;
2021/05/14 15:34:59;;;;;;;11.13;8.63;;;;;;;14.29;73.93;97752.45;259122;1111;22806;-69
2021/05/14 15:42:15;;;;;;;;;;;;;;;;;;;;;
2021/05/14 15:54:52;;;;;;;8.55;5.90;;;;;;;13.75;74.18;97756.11;258423;1110;22780;-68
2021/05/14 16:00:55;;;;;;;10.95;7.05;;;;;;;13.82;74.73;97751.76;258520;1104;26483;-69
2021/05/14 16:06:09;;;;;;;10.25;7.55;;;;;;;14.01;75.00;97758.50;258275;1106;26471;-69
2021/05/14 16:11:45;;;;;;;;;;;;;;;;;;;;;
2021/05/14 16:17:34;;;;;;;9.90;7.20;;;;;;;13.97;74.79;97757.59;258356;1106;22864;-69
2021/05/14 16:23:11;;;;;;;13.40;9.45;;;;;;;13.95;75.14;97759.83;258451;1103;25733;-69
2021/05/14 16:28:54;;;;;;;;;;;;;;;;;;;;;
2021/05/14 16:34:15;;;;;;;8.83;7.20;;;;;;;13.95;75.43;97775.98;258497;1111;22807;-70
2021/05/14 16:40:04;;;;;;;11.10;8.00;;;;;;;13.89;74.98;97774.64;258285;1103;26271;-68
2021/05/14 16:45:37;;;;;;;11.00;6.60;;;;;;;13.93;75.39;97780.92;258406;1106;24311;-69
2021/05/14 16:50:47;;;;;;;9.93;7.20;;;;;;;13.89;75.33;97777.33;258406;1105;26385;-69
2021/05/14 16:56:00;;;;;;;6.20;4.70;;;;;;;13.84;75.12;97776.42;259198;1103;24444;-69
2021/05/14 17:01:15;;;;;;;6.90;4.70;;;;;;;13.83;75.14;97766.77;259006;1103;22803;-70
2021/05/14 17:06:39;;;;;;;6.03;4.90;;;;;;;13.80;74.76;97780.90;258443;1103;22957;-69
2021/05/14 17:11:58;;;;;;;5.37;3.70;;;;;;;13.76;74.96;97790.76;258821;1103;23009;-69
2021/05/14 17:17:39;;;;;;;5.00;3.70;;;;;;;13.67;74.74;97790.08;258383;1103;25916;-68
2021/05/14 17:23:28;;;;;;;;;;;;;;;;;;;;;
2021/05/14 17:28:56;;;;;;;3.30;3.00;;;;;;;13.58;75.00;97802.83;258873;1111;22873;-68
2021/05/14 17:34:14;;;;;;;4.15;3.25;;;;;;;13.56;75.01;97808.54;258541;1110;24452;-70
2021/05/14 17:39:22;;;;;;;2.70;2.37;;;;;;;13.48;75.04;97806.72;259337;1111;22835;-69
2021/05/14 17:45:17;;;;;;;3.55;2.30;;;;;;;13.35;75.04;97808.58;258371;1110;22844;-69
2021/05/14 17:50:42;;;;;;;3.27;2.43;;;;;;;13.17;75.17;97811.37;258438;1105;22775;-69
2021/05/14 17:56:19;;;;;;;3.60;1.70;;;;;;;13.01;75.31;97819.25;258595;1103;22948;-69
2021/05/14 18:02:05;;;;;;;5.20;2.20;;;;;;;12.94;75.69;97821.67;258425;1105;25932;-69
2021/05/14 18:07:45;;;;;;;2.90;2.00;;;;;;;12.88;75.94;97819.50;258436;1111;22810;-69
2021/05/14 18:13:49;;;;;;;2.90;1.70;;;;;;;12.83;76.14;97826.64;258406;1111;22788;-69
2021/05/14 18:26:46;;;;;;;5.77;4.33;;;;;;;12.91;76.58;97841.13;258309;1106;22826;-69
2021/05/14 18:32:21;;;;;;;6.53;4.93;;;;;;;12.89;76.25;97846.05;259198;1111;23116;-68
2021/05/14 18:38:07;;;;;;;3.80;2.33;;;;;;;12.79;76.28;97849.13;258301;1106;22773;-70
2021/05/14 18:43:34;;;;;;;5.90;4.20;;;;;;;12.75;76.42;97867.79;258188;1111;22787;-69
2021/05/14 18:48:45;;;;;;;4.75;3.10;;;;;;;12.68;76.26;97867.52;258420;1105;22813;-69
2021/05/14 18:54:21;;;;;;;6.47;4.40;;;;;;;12.69;77.25;97877.16;258307;1111;22644;-69
2021/05/14 19:00:06;;;;;;;;;;;;;;;;;;;;;
2021/05/14 19:05:14;;;;;;;6.40;3.80;;;;;;;12.91;77.16;97883.36;259271;1105;22787;-69
2021/05/14 19:10:34;;;;;;;10.87;8.57;;;;;;;12.91;77.20;97894.88;258621;1105;25970;-69
2021/05/14 19:15:49;;;;;;;;;;;;;;;;;;;;;
2021/05/14 19:21:20;;;;;;;5.40;4.85;;;;;;;12.83;76.63;97906.49;258302;1111;22863;-70
2021/05/14 19:44:51;;;;;;;6.20;4.65;;;;;;;12.38;77.69;97931.95;258349;1103;24616;-69
2021/05/14 19:51:04;;;;;;;5.33;3.63;;;;;;;12.28;77.49;97951.08;258408;1103;22861;-70
2021/05/14 19:56:33;;;;;;;4.40;3.10;;;;;;;12.12;78.10;97954.27;258371;1106;22767;-69
2021/05/14 20:02:30;;;;;;;;;;;;;;;;;;;;;
2021/05/14 20:08:56;;;;;;;4.20;3.30;;;;;;;11.91;78.25;97959.47;257920;1106;22780;-69
2021/05/14 20:57:13;;;;;;;12.90;8.77;;;;;;;11.64;81.23;97985.52;258136;1103;25890;-69
2021/05/14 21:32:08;;;;;;;;;;;;;;;;;;;;;
2021/05/14 22:00:15;;;;;;;;;;;;;;;;;;;;;
2021/05/14 22:07:22;;;;;;;;;;;;;;;;;;;;;
2021/05/14 22:21:29;;;;;;;;;;;;;;;;;;;;;
2021/05/14 23:31:45;;;;;;;;;;;;;;;;;;;;;
2021/05/14 23:38:34;;;;;;;;;;;;;;;;;;;;;
2021/05/14 23:52:07;;;;;;;;;;;;;;;;;;;;;
2021/05/14 23:58:43;;;;;;;37.67;20.63;;;;;;;9.99;86.16;97980.22;257866;1106;22807;-68
